sensor_id;sensor_type;location;lat;lon;timestamp;pressure;altitude;pressure_sealevel;temperature;humidity
9035;BME280;4552;43.422;24.592;2022-09-03T00:00:23;99855.06;;;17.56;100.00
9035;BME280;4552;43.422;24.592;2022-09-03T00:02:59;99863.91;;;17.55;100.00
9035;BME280;4552;43.422;24.592;2022-09-03T00:05:36;99875.69;;;17.68;100.00
9035;BME280;4552;43.422;24.592;2022-09-03T00:08:09;99856.03;;;17.53;100.00
9035;BME280;4552;43.422;24.592;2022-09-03T00:10:50;99898.25;;;17.76;100.00
9035;BME280;4552;43.422;24.592;2022-09-03T00:13:23;99883.38;;;17.74;100.00
9035;BME280;4552;43.422;24.592;2022-09-03T00:15:54;99862.84;;;17.59;100.00
9035;BME280;4552;43.422;24.592;2022-09-03T00:18:26;99881.72;;;17.71;100.00
9035;BME280;4552;43.422;24.592;2022-09-03T00:21:01;99880.44;;;17.60;100.00
9035;BME280;4552;43.422;24.592;2022-09-03T00:23:35;99868.63;;;17.48;100.00
9035;BME280;4552;43.422;24.592;2022-09-03T00:26:18;99887.28;;;17.65;100.00
9035;BME280;4552;43.422;24.592;2022-09-03T00:28:55;99868.63;;;17.48;100.00
9035;BME280;4552;43.422;24.592;2022-09-03T00:31:29;99877.06;;;17.56;100.00
9035;BME280;4552;43.422;24.592;2022-09-03T00:34:01;99886.69;;;17.59;100.00
9035;BME280;4552;43.422;24.592;2022-09-03T00:36:35;99889.88;;;17.67;100.00
9035;BME280;4552;43.422;24.592;2022-09-03T00:39:08;99892.88;;;17.58;100.00
9035;BME280;4552;43.422;24.592;2022-09-03T00:41:38;99901.16;;;17.70;100.00
9035;BME280;4552;43.422;24.592;2022-09-03T00:44:25;99883.69;;;17.46;100.00
9035;BME280;4552;43.422;24.592;2022-09-03T00:47:01;99893.81;;;17.57;100.00
9035;BME280;4552;43.422;24.592;2022-09-03T00:49:40;99879.44;;;17.42;100.00
9035;BME280;4552;43.422;24.592;2022-09-03T00:52:23;99883.63;;;17.48;100.00
9035;BME280;4552;43.422;24.592;2022-09-03T00:55:04;99871.31;;;17.47;100.00
9035;BME280;4552;43.422;24.592;2022-09-03T00:57:43;99908.00;;;17.56;100.00
9035;BME280;4552;43.422;24.592;2022-09-03T01:00:17;99909.22;;;17.47;100.00
9035;BME280;4552;43.422;24.592;2022-09-03T01:02:54;99896.41;;;17.37;100.00
9035;BME280;4552;43.422;24.592;2022-09-03T01:05:42;99908.94;;;17.33;100.00
9035;BME280;4552;43.422;24.592;2022-09-03T01:08:40;99885.72;;;17.18;100.00
9035;BME280;4552;43.422;24.592;2022-09-03T01:11:20;99897.91;;;17.22;100.00
9035;BME280;4552;43.422;24.592;2022-09-03T01:13:56;99912.47;;;17.32;100.00
9035;BME280;4552;43.422;24.592;2022-09-03T01:16:35;99919.25;;;17.39;100.00
9035;BME280;4552;43.422;24.592;2022-09-03T01:19:18;99928.16;;;17.37;100.00
9035;BME280;4552;43.422;24.592;2022-09-03T01:22:07;99928.03;;;17.40;100.00
9035;BME280;4552;43.422;24.592;2022-09-03T01:25:17;99920.91;;;17.42;100.00
9035;BME280;4552;43.422;24.592;2022-09-03T01:28:18;99933.25;;;17.41;100.00
9035;BME280;4552;43.422;24.592;2022-09-03T01:30:56;99948.09;;;17.47;100.00
9035;BME280;4552;43.422;24.592;2022-09-03T01:33:40;99933.31;;;17.40;100.00
9035;BME280;4552;43.422;24.592;2022-09-03T01:36:15;99945.44;;;17.47;100.00
9035;BME280;4552;43.422;24.592;2022-09-03T01:38:49;99927.53;;;17.30;100.00
9035;BME280;4552;43.422;24.592;2022-09-03T01:41:26;99930.03;;;17.35;100.00
9035;BME280;4552;43.422;24.592;2022-09-03T01:44:30;99912.66;;;17.27;100.00
9035;BME280;4552;43.422;24.592;2022-09-03T01:47:14;99906.03;;;17.17;100.00
9035;BME280;4552;43.422;24.592;2022-09-03T01:49:52;99912.84;;;17.23;100.00
9035;BME280;4552;43.422;24.592;2022-09-03T01:52:33;99935.31;;;17.35;100.00
9035;BME280;4552;43.422;24.592;2022-09-03T01:55:17;99910.28;;;17.21;100.00
9035;BME280;4552;43.422;24.592;2022-09-03T01:57:49;99934.69;;;17.28;100.00
9035;BME280;4552;43.422;24.592;2022-09-03T02:00:24;99936.91;;;17.39;100.00
9035;BME280;4552;43.422;24.592;2022-09-03T02:03:01;99921.16;;;17.14;100.00
9035;BME280;4552;43.422;24.592;2022-09-03T02:05:30;99938.69;;;17.16;100.00
9035;BME280;4552;43.422;24.592;2022-09-03T02:08:01;99946.19;;;17.27;100.00
9035;BME280;4552;43.422;24.592;2022-09-03T02:10:32;99945.34;;;17.26;100.00
9035;BME280;4552;43.422;24.592;2022-09-03T02:13:06;99932.75;;;17.11;100.00
9035;BME280;4552;43.422;24.592;2022-09-03T02:15:37;99952.66;;;17.20;100.00
9035;BME280;4552;43.422;24.592;2022-09-03T02:18:09;99943.78;;;17.21;100.00
9035;BME280;4552;43.422;24.592;2022-09-03T02:20:40;99909.97;;;17.07;100.00
9035;BME280;4552;43.422;24.592;2022-09-03T02:23:08;99939.50;;;17.18;100.00
9035;BME280;4552;43.422;24.592;2022-09-03T02:25:38;99945.78;;;17.16;100.00
9035;BME280;4552;43.422;24.592;2022-09-03T02:28:08;99931.69;;;17.15;100.00
9035;BME280;4552;43.422;24.592;2022-09-03T02:30:37;99920.66;;;17.04;100.00
9035;BME280;4552;43.422;24.592;2022-09-03T02:33:04;99913.03;;;16.97;100.00
9035;BME280;4552;43.422;24.592;2022-09-03T02:35:31;99942.06;;;16.98;100.00
9035;BME280;4552;43.422;24.592;2022-09-03T02:38:08;99913.78;;;16.79;100.00
9035;BME280;4552;43.422;24.592;2022-09-03T02:40:35;99945.72;;;16.96;100.00
9035;BME280;4552;43.422;24.592;2022-09-03T02:43:05;99931.97;;;16.86;100.00
9035;BME280;4552;43.422;24.592;2022-09-03T02:45:43;99920.06;;;16.76;100.00
9035;BME280;4552;43.422;24.592;2022-09-03T02:48:13;99933.69;;;16.87;100.00
9035;BME280;4552;43.422;24.592;2022-09-03T02:50:42;99936.41;;;16.86;100.00
9035;BME280;4552;43.422;24.592;2022-09-03T02:53:10;99915.09;;;16.67;100.00
9035;BME280;4552;43.422;24.592;2022-09-03T02:55:38;99945.50;;;16.79;100.00
9035;BME280;4552;43.422;24.592;2022-09-03T02:58:05;99922.38;;;16.62;100.00
9035;BME280;4552;43.422;24.592;2022-09-03T03:00:33;99947.63;;;16.69;100.00
9035;BME280;4552;43.422;24.592;2022-09-03T03:03:03;99914.78;;;16.53;100.00
9035;BME280;4552;43.422;24.592;2022-09-03T03:05:37;99955.31;;;16.75;100.00
9035;BME280;4552;43.422;24.592;2022-09-03T03:08:07;99952.03;;;16.70;100.00
9035;BME280;4552;43.422;24.592;2022-09-03T03:10:36;99957.19;;;16.73;100.00
9035;BME280;4552;43.422;24.592;2022-09-03T03:13:04;99938.88;;;16.67;100.00
9035;BME280;4552;43.422;24.592;2022-09-03T03:15:31;99956.31;;;16.73;100.00
9035;BME280;4552;43.422;24.592;2022-09-03T03:18:01;99938.00;;;16.68;100.00
9035;BME280;4552;43.422;24.592;2022-09-03T03:20:31;99934.41;;;16.69;100.00
9035;BME280;4552;43.422;24.592;2022-09-03T03:23:01;99955.91;;;16.83;100.00
9035;BME280;4552;43.422;24.592;2022-09-03T03:25:30;99951.66;;;16.79;100.00
9035;BME280;4552;43.422;24.592;2022-09-03T03:27:58;99957.56;;;16.86;100.00
9035;BME280;4552;43.422;24.592;2022-09-03T03:30:27;99932.34;;;16.77;100.00
9035;BME280;4552;43.422;24.592;2022-09-03T03:32:55;99946.13;;;16.85;100.00
9035;BME280;4552;43.422;24.592;2022-09-03T03:35:24;99955.47;;;16.94;100.00
9035;BME280;4552;43.422;24.592;2022-09-03T03:37:51;99942.56;;;16.86;100.00
9035;BME280;4552;43.422;24.592;2022-09-03T03:40:18;99943.78;;;16.78;100.00
9035;BME280;4552;43.422;24.592;2022-09-03T03:42:45;99937.00;;;16.71;100.00
9035;BME280;4552;43.422;24.592;2022-09-03T03:45:12;99966.59;;;16.80;100.00
9035;BME280;4552;43.422;24.592;2022-09-03T03:47:42;99968.44;;;16.78;100.00
9035;BME280;4552;43.422;24.592;2022-09-03T03:50:09;99952.91;;;16.69;100.00
9035;BME280;4552;43.422;24.592;2022-09-03T03:52:38;99958.78;;;16.77;100.00
9035;BME280;4552;43.422;24.592;2022-09-03T03:55:06;99961.06;;;16.86;100.00
9035;BME280;4552;43.422;24.592;2022-09-03T03:57:33;99947.72;;;16.89;100.00
9035;BME280;4552;43.422;24.592;2022-09-03T04:00:01;99951.72;;;16.99;100.00
9035;BME280;4552;43.422;24.592;2022-09-03T04:02:28;99944.28;;;16.87;100.00
9035;BME280;4552;43.422;24.592;2022-09-03T04:04:56;99934.19;;;16.97;100.00
9035;BME280;4552;43.422;24.592;2022-09-03T04:07:23;99935.69;;;17.04;100.00
9035;BME280;4552;43.422;24.592;2022-09-03T04:09:52;99933.31;;;16.96;100.00
9035;BME280;4552;43.422;24.592;2022-09-03T04:12:37;99933.06;;;17.04;100.00
9035;BME280;4552;43.422;24.592;2022-09-03T04:15:08;99946.28;;;17.04;100.00
9035;BME280;4552;43.422;24.592;2022-09-03T04:17:35;99941.88;;;17.03;100.00
9035;BME280;4552;43.422;24.592;2022-09-03T04:20:04;99964.50;;;17.11;100.00
9035;BME280;4552;43.422;24.592;2022-09-03T04:22:32;99967.91;;;17.13;100.00
9035;BME280;4552;43.422;24.592;2022-09-03T04:25:01;99966.25;;;17.33;100.00
9035;BME280;4552;43.422;24.592;2022-09-03T04:27:28;99977.53;;;17.38;100.00
9035;BME280;4552;43.422;24.592;2022-09-03T04:29:56;99964.38;;;17.36;100.00
9035;BME280;4552;43.422;24.592;2022-09-03T04:32:23;99963.97;;;17.47;100.00
9035;BME280;4552;43.422;24.592;2022-09-03T04:35:08;99964.13;;;17.42;100.00
9035;BME280;4552;43.422;24.592;2022-09-03T04:37:35;99961.31;;;17.47;100.00
9035;BME280;4552;43.422;24.592;2022-09-03T04:40:06;99948.63;;;17.33;100.00
9035;BME280;4552;43.422;24.592;2022-09-03T04:42:33;99967.66;;;17.41;100.00
9035;BME280;4552;43.422;24.592;2022-09-03T04:45:01;99968.91;;;17.33;100.00
9035;BME280;4552;43.422;24.592;2022-09-03T04:47:28;99969.41;;;17.20;100.00
9035;BME280;4552;43.422;24.592;2022-09-03T04:49:56;99975.00;;;17.13;100.00
9035;BME280;4552;43.422;24.592;2022-09-03T04:52:23;99985.78;;;17.08;100.00
9035;BME280;4552;43.422;24.592;2022-09-03T04:54:55;99954.72;;;16.90;100.00
9035;BME280;4552;43.422;24.592;2022-09-03T04:57:25;99966.63;;;17.02;100.00
9035;BME280;4552;43.422;24.592;2022-09-03T04:59:58;99974.19;;;17.11;100.00
9035;BME280;4552;43.422;24.592;2022-09-03T05:02:26;99964.72;;;17.05;100.00
9035;BME280;4552;43.422;24.592;2022-09-03T05:04:53;99993.28;;;17.19;100.00
9035;BME280;4552;43.422;24.592;2022-09-03T05:07:20;99995.88;;;17.20;100.00
9035;BME280;4552;43.422;24.592;2022-09-03T05:09:47;99994.00;;;17.22;100.00
9035;BME280;4552;43.422;24.592;2022-09-03T05:12:14;99964.28;;;16.94;100.00
9035;BME280;4552;43.422;24.592;2022-09-03T05:14:43;99988.34;;;17.10;100.00
9035;BME280;4552;43.422;24.592;2022-09-03T05:17:11;99996.00;;;17.17;100.00
9035;BME280;4552;43.422;24.592;2022-09-03T05:19:38;100001.03;;;17.23;100.00
9035;BME280;4552;43.422;24.592;2022-09-03T05:22:06;100007.41;;;17.18;100.00
9035;BME280;4552;43.422;24.592;2022-09-03T05:24:33;99978.75;;;17.07;100.00
9035;BME280;4552;43.422;24.592;2022-09-03T05:27:00;99976.28;;;17.03;100.00
9035;BME280;4552;43.422;24.592;2022-09-03T05:29:28;100000.53;;;17.14;100.00
9035;BME280;4552;43.422;24.592;2022-09-03T05:31:57;99979.22;;;16.95;100.00
9035;BME280;4552;43.422;24.592;2022-09-03T05:34:24;100008.66;;;17.09;100.00
9035;BME280;4552;43.422;24.592;2022-09-03T05:36:52;100020.34;;;17.04;100.00
9035;BME280;4552;43.422;24.592;2022-09-03T05:39:23;100021.00;;;17.09;100.00
9035;BME280;4552;43.422;24.592;2022-09-03T05:41:50;100023.75;;;17.06;100.00
9035;BME280;4552;43.422;24.592;2022-09-03T05:44:21;100032.66;;;17.26;100.00
9035;BME280;4552;43.422;24.592;2022-09-03T05:46:49;100025.09;;;17.39;100.00
9035;BME280;4552;43.422;24.592;2022-09-03T05:49:32;100012.28;;;17.28;100.00
9035;BME280;4552;43.422;24.592;2022-09-03T05:52:00;100021.91;;;17.31;100.00
9035;BME280;4552;43.422;24.592;2022-09-03T05:54:29;100027.59;;;17.44;100.00
9035;BME280;4552;43.422;24.592;2022-09-03T05:56:57;100035.81;;;17.58;100.00
9035;BME280;4552;43.422;24.592;2022-09-03T05:59:25;100030.53;;;17.58;100.00
9035;BME280;4552;43.422;24.592;2022-09-03T06:01:52;100026.28;;;17.54;100.00
9035;BME280;4552;43.422;24.592;2022-09-03T06:04:19;100031.13;;;17.43;100.00
9035;BME280;4552;43.422;24.592;2022-09-03T06:06:49;100026.44;;;17.27;100.00
9035;BME280;4552;43.422;24.592;2022-09-03T06:09:19;100023.28;;;17.18;100.00
9035;BME280;4552;43.422;24.592;2022-09-03T06:11:50;100036.38;;;17.44;100.00
9035;BME280;4552;43.422;24.592;2022-09-03T06:14:18;100035.88;;;17.56;100.00
9035;BME280;4552;43.422;24.592;2022-09-03T06:16:47;100034.66;;;17.65;100.00
9035;BME280;4552;43.422;24.592;2022-09-03T06:19:17;100041.28;;;17.75;100.00
9035;BME280;4552;43.422;24.592;2022-09-03T06:21:45;100046.97;;;17.66;100.00
9035;BME280;4552;43.422;24.592;2022-09-03T06:24:17;100048.09;;;17.60;100.00
9035;BME280;4552;43.422;24.592;2022-09-03T06:26:46;100025.66;;;17.47;100.00
9035;BME280;4552;43.422;24.592;2022-09-03T06:29:14;100041.50;;;17.49;100.00
9035;BME280;4552;43.422;24.592;2022-09-03T06:31:45;100032.53;;;17.29;100.00
9035;BME280;4552;43.422;24.592;2022-09-03T06:34:19;100062.03;;;17.42;100.00
9035;BME280;4552;43.422;24.592;2022-09-03T06:36:50;100039.53;;;17.30;100.00
9035;BME280;4552;43.422;24.592;2022-09-03T06:39:20;100067.72;;;17.55;100.00
9035;BME280;4552;43.422;24.592;2022-09-03T06:41:55;100067.72;;;17.55;100.00
9035;BME280;4552;43.422;24.592;2022-09-03T06:44:22;100052.13;;;17.47;100.00
9035;BME280;4552;43.422;24.592;2022-09-03T06:46:50;100060.66;;;17.55;100.00
9035;BME280;4552;43.422;24.592;2022-09-03T06:49:19;100033.31;;;17.55;100.00
9035;BME280;4552;43.422;24.592;2022-09-03T06:51:56;100059.78;;;17.76;100.00
9035;BME280;4552;43.422;24.592;2022-09-03T06:54:32;100070.97;;;17.83;100.00
9035;BME280;4552;43.422;24.592;2022-09-03T06:57:05;100065.19;;;17.73;100.00
9035;BME280;4552;43.422;24.592;2022-09-03T06:59:34;100078.25;;;17.78;100.00
9035;BME280;4552;43.422;24.592;2022-09-03T07:02:03;100047.41;;;17.55;100.00
9035;BME280;4552;43.422;24.592;2022-09-03T07:04:37;100067.00;;;17.73;100.00
9035;BME280;4552;43.422;24.592;2022-09-03T07:07:06;100047.59;;;17.51;100.00
9035;BME280;4552;43.422;24.592;2022-09-03T07:09:39;100076.41;;;17.58;100.00
9035;BME280;4552;43.422;24.592;2022-09-03T07:12:18;100065.31;;;17.49;100.00
9035;BME280;4552;43.422;24.592;2022-09-03T07:14:48;100054.72;;;17.49;100.00
9035;BME280;4552;43.422;24.592;2022-09-03T07:17:19;100064.81;;;17.61;100.00
9035;BME280;4552;43.422;24.592;2022-09-03T07:19:48;100087.94;;;17.79;100.00
9035;BME280;4552;43.422;24.592;2022-09-03T07:22:19;100068.28;;;17.63;100.00
9035;BME280;4552;43.422;24.592;2022-09-03T07:24:51;100092.16;;;17.83;100.00
9035;BME280;4552;43.422;24.592;2022-09-03T07:27:30;100095.88;;;17.79;100.00
9035;BME280;4552;43.422;24.592;2022-09-03T07:30:02;100093.03;;;17.62;100.00
9035;BME280;4552;43.422;24.592;2022-09-03T07:32:44;100105.59;;;17.57;100.00
9035;BME280;4552;43.422;24.592;2022-09-03T07:35:16;100092.09;;;17.63;100.00
9035;BME280;4552;43.422;24.592;2022-09-03T07:37:45;100079.22;;;17.54;100.00
9035;BME280;4552;43.422;24.592;2022-09-03T07:40:16;100107.63;;;17.72;100.00
9035;BME280;4552;43.422;24.592;2022-09-03T07:42:44;100109.63;;;17.67;100.00
9035;BME280;4552;43.422;24.592;2022-09-03T07:45:24;100107.94;;;17.64;100.00
9035;BME280;4552;43.422;24.592;2022-09-03T07:48:19;100107.44;;;17.76;100.00
9035;BME280;4552;43.422;24.592;2022-09-03T07:51:00;100088.84;;;17.78;100.00
9035;BME280;4552;43.422;24.592;2022-09-03T07:53:27;100115.19;;;17.81;100.00
9035;BME280;4552;43.422;24.592;2022-09-03T07:56:02;100119.59;;;17.82;100.00
9035;BME280;4552;43.422;24.592;2022-09-03T07:58:30;100122.94;;;17.85;100.00
9035;BME280;4552;43.422;24.592;2022-09-03T08:00:57;100112.72;;;17.76;100.00
9035;BME280;4552;43.422;24.592;2022-09-03T08:03:25;100134.47;;;17.84;100.00
9035;BME280;4552;43.422;24.592;2022-09-03T08:05:52;100125.72;;;17.82;100.00
9035;BME280;4552;43.422;24.592;2022-09-03T08:08:20;100138.47;;;17.94;100.00
9035;BME280;4552;43.422;24.592;2022-09-03T08:10:48;100118.53;;;17.86;100.00
9035;BME280;4552;43.422;24.592;2022-09-03T08:13:17;100104.09;;;17.93;100.00
9035;BME280;4552;43.422;24.592;2022-09-03T08:15:52;100124.25;;;17.97;100.00
9035;BME280;4552;43.422;24.592;2022-09-03T08:18:20;100125.97;;;17.98;100.00
9035;BME280;4552;43.422;24.592;2022-09-03T08:20:48;100125.34;;;17.91;100.00
9035;BME280;4552;43.422;24.592;2022-09-03T08:23:16;100108.56;;;17.92;100.00
9035;BME280;4552;43.422;24.592;2022-09-03T08:25:43;100117.41;;;17.91;100.00
9035;BME280;4552;43.422;24.592;2022-09-03T08:28:10;100127.41;;;18.06;100.00
9035;BME280;4552;43.422;24.592;2022-09-03T08:30:39;100125.16;;;18.17;100.00
9035;BME280;4552;43.422;24.592;2022-09-03T08:33:06;100122.69;;;18.13;100.00
9035;BME280;4552;43.422;24.592;2022-09-03T08:35:36;100102.00;;;18.01;100.00
9035;BME280;4552;43.422;24.592;2022-09-03T08:38:03;100118.06;;;18.18;100.00
9035;BME280;4552;43.422;24.592;2022-09-03T08:40:36;100115.97;;;18.26;100.00
9035;BME280;4552;43.422;24.592;2022-09-03T08:43:10;100122.19;;;18.25;100.00
9035;BME280;4552;43.422;24.592;2022-09-03T08:45:45;100114.81;;;18.11;100.00
9035;BME280;4552;43.422;24.592;2022-09-03T08:48:15;100124.84;;;18.25;100.00
9035;BME280;4552;43.422;24.592;2022-09-03T08:50:46;100099.13;;;18.27;100.00
9035;BME280;4552;43.422;24.592;2022-09-03T08:53:20;100123.78;;;18.29;100.00
9035;BME280;4552;43.422;24.592;2022-09-03T08:55:51;100137.63;;;18.15;100.00
9035;BME280;4552;43.422;24.592;2022-09-03T08:58:25;100120.53;;;18.22;100.00
9035;BME280;4552;43.422;24.592;2022-09-03T09:01:04;100116.22;;;18.20;100.00
9035;BME280;4552;43.422;24.592;2022-09-03T09:03:42;100123.19;;;18.44;100.00
9035;BME280;4552;43.422;24.592;2022-09-03T09:06:20;100111.91;;;18.39;100.00
9035;BME280;4552;43.422;24.592;2022-09-03T09:09:11;100127.00;;;18.57;100.00
9035;BME280;4552;43.422;24.592;2022-09-03T09:11:49;100116.53;;;18.54;100.00
9035;BME280;4552;43.422;24.592;2022-09-03T09:14:25;100141.34;;;18.73;100.00
9035;BME280;4552;43.422;24.592;2022-09-03T09:17:09;100117.16;;;18.60;100.00
9035;BME280;4552;43.422;24.592;2022-09-03T09:19:46;100139.44;;;18.76;100.00
9035;BME280;4552;43.422;24.592;2022-09-03T09:22:23;100135.63;;;18.82;100.00
9035;BME280;4552;43.422;24.592;2022-09-03T09:24:54;100130.88;;;18.70;100.00
9035;BME280;4552;43.422;24.592;2022-09-03T09:27:23;100119.47;;;18.48;100.00
9035;BME280;4552;43.422;24.592;2022-09-03T09:29:51;100108.63;;;18.32;100.00
9035;BME280;4552;43.422;24.592;2022-09-03T09:32:22;100137.88;;;18.51;100.00
9035;BME280;4552;43.422;24.592;2022-09-03T09:34:49;100113.38;;;18.46;100.00
9035;BME280;4552;43.422;24.592;2022-09-03T09:37:19;100125.09;;;18.60;100.00
9035;BME280;4552;43.422;24.592;2022-09-03T09:39:54;100117.00;;;18.43;100.00
9035;BME280;4552;43.422;24.592;2022-09-03T09:42:23;100137.63;;;18.57;100.00
9035;BME280;4552;43.422;24.592;2022-09-03T09:44:50;100143.88;;;18.76;100.00
9035;BME280;4552;43.422;24.592;2022-09-03T09:47:23;100143.88;;;18.76;100.00
9035;BME280;4552;43.422;24.592;2022-09-03T09:49:53;100127.94;;;18.76;100.00
9035;BME280;4552;43.422;24.592;2022-09-03T09:52:22;100148.38;;;18.74;100.00
9035;BME280;4552;43.422;24.592;2022-09-03T09:54:51;100150.41;;;18.87;100.00
9035;BME280;4552;43.422;24.592;2022-09-03T09:57:22;100148.91;;;19.02;100.00
9035;BME280;4552;43.422;24.592;2022-09-03T10:00:02;100151.94;;;19.13;100.00
9035;BME280;4552;43.422;24.592;2022-09-03T10:02:35;100153.78;;;19.11;100.00
9035;BME280;4552;43.422;24.592;2022-09-03T10:05:19;100153.44;;;19.39;100.00
9035;BME280;4552;43.422;24.592;2022-09-03T10:07:54;100163.59;;;19.29;100.00
9035;BME280;4552;43.422;24.592;2022-09-03T10:10:24;100151.72;;;19.18;100.00
9035;BME280;4552;43.422;24.592;2022-09-03T10:12:57;100139.16;;;18.82;100.00
9035;BME280;4552;43.422;24.592;2022-09-03T10:15:31;100161.91;;;18.88;100.00
9035;BME280;4552;43.422;24.592;2022-09-03T10:18:09;100162.13;;;19.22;100.00
9035;BME280;4552;43.422;24.592;2022-09-03T10:20:46;100173.19;;;18.73;100.00
9035;BME280;4552;43.422;24.592;2022-09-03T10:23:21;100145.00;;;18.29;100.00
9035;BME280;4552;43.422;24.592;2022-09-03T10:25:57;100181.38;;;18.47;100.00
9035;BME280;4552;43.422;24.592;2022-09-03T10:28:29;100173.16;;;18.53;100.00
9035;BME280;4552;43.422;24.592;2022-09-03T10:34:05;100162.31;;;18.37;100.00
9035;BME280;4552;43.422;24.592;2022-09-03T10:36:39;100184.97;;;18.46;100.00
9035;BME280;4552;43.422;24.592;2022-09-03T10:39:12;100181.38;;;18.47;100.00
9035;BME280;4552;43.422;24.592;2022-09-03T10:41:49;100176.88;;;18.49;100.00
9035;BME280;4552;43.422;24.592;2022-09-03T10:44:40;100181.81;;;18.78;100.00
9035;BME280;4552;43.422;24.592;2022-09-03T10:47:25;100183.47;;;18.80;100.00
9035;BME280;4552;43.422;24.592;2022-09-03T10:50:02;100187.88;;;19.00;100.00
9035;BME280;4552;43.422;24.592;2022-09-03T10:52:44;100178.09;;;18.82;100.00
9035;BME280;4552;43.422;24.592;2022-09-03T10:55:27;100198.13;;;18.69;100.00
9035;BME280;4552;43.422;24.592;2022-09-03T10:58:09;100201.19;;;18.58;100.00
9035;BME280;4552;43.422;24.592;2022-09-03T11:00:51;100179.13;;;18.58;100.00
9035;BME280;4552;43.422;24.592;2022-09-03T11:03:41;100190.22;;;18.67;100.00
9035;BME280;4552;43.422;24.592;2022-09-03T11:06:16;100195.81;;;18.60;100.00
9035;BME280;4552;43.422;24.592;2022-09-03T11:08:48;100179.19;;;18.56;100.00
9035;BME280;4552;43.422;24.592;2022-09-03T11:11:20;100183.09;;;18.68;100.00
9035;BME280;4552;43.422;24.592;2022-09-03T11:13:53;100181.59;;;19.03;100.00
9035;BME280;4552;43.422;24.592;2022-09-03T11:16:26;100194.91;;;19.21;100.00
9035;BME280;4552;43.422;24.592;2022-09-03T11:19:02;100198.84;;;19.13;100.00
9035;BME280;4552;43.422;24.592;2022-09-03T11:21:33;100197.69;;;19.18;100.00
9035;BME280;4552;43.422;24.592;2022-09-03T11:24:11;100189.72;;;19.18;100.00
9035;BME280;4552;43.422;24.592;2022-09-03T11:26:40;100171.50;;;19.11;100.00
9035;BME280;4552;43.422;24.592;2022-09-03T11:29:14;100195.78;;;19.42;100.00
9035;BME280;4552;43.422;24.592;2022-09-03T11:31:54;100194.41;;;19.52;100.00
9035;BME280;4552;43.422;24.592;2022-09-03T11:34:28;100188.00;;;19.37;100.00
9035;BME280;4552;43.422;24.592;2022-09-03T11:37:16;100187.16;;;19.37;100.00
9035;BME280;4552;43.422;24.592;2022-09-03T11:39:51;100204.16;;;19.33;100.00
9035;BME280;4552;43.422;24.592;2022-09-03T11:42:28;100182.72;;;19.37;100.00
9035;BME280;4552;43.422;24.592;2022-09-03T11:45:21;100208.38;;;19.37;100.00
9035;BME280;4552;43.422;24.592;2022-09-03T11:47:50;100199.25;;;19.62;100.00
9035;BME280;4552;43.422;24.592;2022-09-03T11:50:21;100208.69;;;19.49;100.00
9035;BME280;4552;43.422;24.592;2022-09-03T11:52:53;100203.09;;;19.55;100.00
9035;BME280;4552;43.422;24.592;2022-09-03T11:55:25;100199.94;;;19.47;100.00
9035;BME280;4552;43.422;24.592;2022-09-03T11:57:55;100174.84;;;19.54;100.00
9035;BME280;4552;43.422;24.592;2022-09-03T12:00:24;100199.31;;;19.79;100.00
9035;BME280;4552;43.422;24.592;2022-09-03T12:02:55;100187.97;;;19.76;100.00
9035;BME280;4552;43.422;24.592;2022-09-03T12:05:30;100189.25;;;19.67;100.00
9035;BME280;4552;43.422;24.592;2022-09-03T12:11:19;100211.47;;;19.85;100.00
9035;BME280;4552;43.422;24.592;2022-09-03T12:13:54;100183.13;;;20.02;100.00
9035;BME280;4552;43.422;24.592;2022-09-03T12:16:39;100204.00;;;19.93;100.00
9035;BME280;4552;43.422;24.592;2022-09-03T12:19:17;100206.41;;;19.60;100.00
9035;BME280;4552;43.422;24.592;2022-09-03T12:21:47;100212.28;;;19.48;100.00
9035;BME280;4552;43.422;24.592;2022-09-03T12:24:15;100205.78;;;19.35;100.00
9035;BME280;4552;43.422;24.592;2022-09-03T12:26:46;100205.78;;;19.35;100.00
9035;BME280;4552;43.422;24.592;2022-09-03T12:29:24;100202.69;;;19.64;100.00
9035;BME280;4552;43.422;24.592;2022-09-03T12:32:06;100207.28;;;19.61;100.00
9035;BME280;4552;43.422;24.592;2022-09-03T12:34:33;100207.41;;;19.95;100.00
9035;BME280;4552;43.422;24.592;2022-09-03T12:37:00;100209.00;;;19.80;100.00
9035;BME280;4552;43.422;24.592;2022-09-03T12:39:29;100206.34;;;19.80;100.00
9035;BME280;4552;43.422;24.592;2022-09-03T12:42:01;100191.44;;;19.59;100.00
9035;BME280;4552;43.422;24.592;2022-09-03T12:44:30;100182.88;;;19.71;100.00
9035;BME280;4552;43.422;24.592;2022-09-03T12:47:03;100211.75;;;19.79;100.00
9035;BME280;4552;43.422;24.592;2022-09-03T12:49:36;100203.47;;;19.66;100.00
9035;BME280;4552;43.422;24.592;2022-09-03T12:52:10;100194.72;;;19.64;100.00
9035;BME280;4552;43.422;24.592;2022-09-03T12:54:47;100203.84;;;19.77;100.00
9035;BME280;4552;43.422;24.592;2022-09-03T12:57:21;100212.44;;;20.01;100.00
9035;BME280;4552;43.422;24.592;2022-09-03T12:59:54;100213.31;;;20.01;100.00
9035;BME280;4552;43.422;24.592;2022-09-03T13:02:25;100200.53;;;19.91;100.00
9035;BME280;4552;43.422;24.592;2022-09-03T13:04:55;100193.84;;;20.01;100.00
9035;BME280;4552;43.422;24.592;2022-09-03T13:07:26;100199.13;;;20.38;100.00
9035;BME280;4552;43.422;24.592;2022-09-03T13:10:02;100195.91;;;20.31;100.00
9035;BME280;4552;43.422;24.592;2022-09-03T13:12:34;100197.50;;;20.70;100.00
9035;BME280;4552;43.422;24.592;2022-09-03T13:15:15;100187.81;;;20.51;100.00
9035;BME280;4552;43.422;24.592;2022-09-03T13:18:07;100184.06;;;20.55;100.00
9035;BME280;4552;43.422;24.592;2022-09-03T13:20:49;100170.16;;;20.68;100.00
9035;BME280;4552;43.422;24.592;2022-09-03T13:23:30;100166.38;;;20.72;99.27
9035;BME280;4552;43.422;24.592;2022-09-03T13:26:07;100173.16;;;20.77;98.94
9035;BME280;4552;43.422;24.592;2022-09-03T13:28:54;100185.88;;;20.72;100.00
9035;BME280;4552;43.422;24.592;2022-09-03T13:31:29;100171.22;;;20.81;99.79